createdAt,value
2017-09-20T00:01:31.458Z,86.46
2017-09-20T00:03:58.919Z,86.75
2017-09-20T00:06:26.408Z,87.61
2017-09-20T00:08:53.895Z,87.62
2017-09-20T00:11:21.368Z,88.38
2017-09-20T00:13:48.917Z,88.43
2017-09-20T00:16:16.390Z,88.65
2017-09-20T00:18:43.870Z,87.95
2017-09-20T00:21:11.976Z,88.13
2017-09-20T00:23:39.458Z,86.78
2017-09-20T00:26:06.953Z,85.74
2017-09-20T00:28:34.426Z,86.88
2017-09-20T00:31:01.897Z,86.97
2017-09-20T00:33:29.399Z,87.29
2017-09-20T00:35:56.871Z,87.36
2017-09-20T00:38:24.395Z,87.62
2017-09-20T00:40:51.843Z,87.33
2017-09-20T00:43:19.336Z,87.61
2017-09-20T00:45:46.795Z,87.84
2017-09-20T00:48:14.247Z,87.49
2017-09-20T00:50:41.728Z,87.87
2017-09-20T00:53:09.198Z,87.99
2017-09-20T00:55:36.688Z,87.64
2017-09-20T00:58:04.152Z,87.53
2017-09-20T01:00:31.625Z,87.55
2017-09-20T01:02:59.094Z,87.02
2017-09-20T01:05:26.581Z,87.14
2017-09-20T01:07:54.074Z,87.37
2017-09-20T01:10:21.597Z,87.08
2017-09-20T01:12:49.060Z,87.04
2017-09-20T01:15:16.532Z,87.36
2017-09-20T01:17:43.993Z,87.38
2017-09-20T01:20:11.765Z,88.15
2017-09-20T01:22:51.104Z,87.12
2017-09-20T01:25:18.669Z,87.60
2017-09-20T01:27:46.137Z,87.29
2017-09-20T01:30:13.597Z,86.94
2017-09-20T01:32:41.081Z,87.00
2017-09-20T01:35:08.553Z,87.12
2017-09-20T01:37:36.033Z,86.84
2017-09-20T01:40:03.500Z,87.32
2017-09-20T01:42:31.053Z,87.04
2017-09-20T01:44:58.630Z,88.21
2017-09-20T01:47:26.119Z,88.31
2017-09-20T01:49:53.567Z,88.62
2017-09-20T01:52:21.048Z,88.74
2017-09-20T01:54:48.504Z,88.16
2017-09-20T01:57:16.016Z,88.00
2017-09-20T01:59:43.499Z,88.22
2017-09-20T02:02:10.961Z,88.61
2017-09-20T02:04:38.453Z,88.11
2017-09-20T02:07:05.912Z,87.84
2017-09-20T02:09:33.421Z,87.33
2017-09-20T02:12:00.946Z,87.75
2017-09-20T02:14:28.416Z,87.55
2017-09-20T02:16:55.868Z,87.89
2017-09-20T02:19:23.358Z,87.28
2017-09-20T02:21:50.893Z,87.14
2017-09-20T02:24:18.445Z,87.39
2017-09-20T02:26:45.930Z,87.52
2017-09-20T02:29:13.732Z,87.60
2017-09-20T02:31:41.221Z,87.12
2017-09-20T02:34:08.748Z,87.57
2017-09-20T02:36:36.216Z,87.65
2017-09-20T02:39:03.668Z,87.37
2017-09-20T02:41:31.157Z,86.91
2017-09-20T02:43:58.611Z,87.20
2017-09-20T02:46:26.089Z,87.07
2017-09-20T02:48:53.547Z,87.03
2017-09-20T02:51:21.023Z,87.67
2017-09-20T02:53:48.493Z,87.48
2017-09-20T02:56:15.967Z,88.38
2017-09-20T02:58:43.446Z,87.75
2017-09-20T03:01:10.920Z,87.47
2017-09-20T03:03:38.380Z,86.95
2017-09-20T03:06:05.860Z,87.13
2017-09-20T03:08:33.311Z,87.09
2017-09-20T03:11:00.777Z,87.24
2017-09-20T03:13:28.246Z,87.49
2017-09-20T03:15:55.707Z,88.98
2017-09-20T03:18:23.200Z,89.02
2017-09-20T03:20:50.661Z,89.04
2017-09-20T03:23:18.142Z,87.51
2017-09-20T03:25:45.610Z,87.80
2017-09-20T03:28:13.571Z,87.48
2017-09-20T03:30:41.102Z,87.19
2017-09-20T03:33:08.584Z,88.18
2017-09-20T03:35:36.035Z,88.37
2017-09-20T03:38:03.522Z,88.47
2017-09-20T03:40:30.975Z,88.16
2017-09-20T03:42:58.467Z,87.70
2017-09-20T03:45:25.920Z,88.90
2017-09-20T03:47:53.417Z,88.60
2017-09-20T03:50:20.871Z,88.09
2017-09-20T03:52:48.330Z,88.22
2017-09-20T03:55:15.808Z,87.57
2017-09-20T03:57:43.280Z,88.03
2017-09-20T04:00:10.746Z,88.40
2017-09-20T04:02:38.201Z,88.23
2017-09-20T04:05:05.694Z,88.78
2017-09-20T04:07:33.250Z,88.15
2017-09-20T04:10:00.745Z,88.90
2017-09-20T04:12:28.216Z,88.65
2017-09-20T04:14:56.007Z,88.79
2017-09-20T04:17:23.484Z,88.84
2017-09-20T04:19:50.981Z,89.18
2017-09-20T04:22:18.438Z,88.86
2017-09-20T04:24:45.927Z,89.25
2017-09-20T04:27:13.529Z,88.51
2017-09-20T04:29:40.988Z,86.06
2017-09-20T04:32:08.476Z,87.43
2017-09-20T04:34:36.001Z,88.97
2017-09-20T04:37:03.487Z,89.29
2017-09-20T04:39:30.935Z,89.20
2017-09-20T04:41:58.432Z,89.00
2017-09-20T04:44:25.911Z,89.25
2017-09-20T04:46:53.393Z,88.44
2017-09-20T04:49:20.864Z,88.65
2017-09-20T04:51:48.368Z,88.88
2017-09-20T04:54:15.824Z,89.27
2017-09-20T04:56:43.314Z,89.55
2017-09-20T04:59:10.773Z,90.21
2017-09-20T05:01:38.260Z,90.06
2017-09-20T05:04:05.729Z,90.12
2017-09-20T05:06:33.245Z,88.96
2017-09-20T05:09:00.705Z,88.99
2017-09-20T05:11:28.194Z,88.68
2017-09-20T05:13:56.106Z,89.13
2017-09-20T05:16:23.705Z,89.81
2017-09-20T05:18:51.160Z,89.74
2017-09-20T05:21:18.646Z,89.67
2017-09-20T05:23:46.108Z,89.30
2017-09-20T05:26:13.593Z,88.66
2017-09-20T05:28:41.067Z,88.40
2017-09-20T05:31:08.529Z,88.77
2017-09-20T05:33:36.013Z,87.21
2017-09-20T05:36:03.486Z,85.04
2017-09-20T05:38:31.001Z,87.35
2017-09-20T05:40:58.472Z,88.96
2017-09-20T05:43:25.957Z,89.32
2017-09-20T05:45:53.423Z,89.23
2017-09-20T05:48:20.895Z,89.91
2017-09-20T05:50:48.343Z,90.07
2017-09-20T05:53:15.815Z,90.29
2017-09-20T05:55:43.288Z,90.36
2017-09-20T05:58:10.769Z,89.60
2017-09-20T06:00:38.301Z,89.07
2017-09-20T06:03:05.794Z,88.94
2017-09-20T06:05:33.366Z,88.79
2017-09-20T06:08:00.849Z,89.21
2017-09-20T06:10:28.307Z,88.66
2017-09-20T06:12:55.813Z,89.19
2017-09-20T06:15:23.286Z,89.06
2017-09-20T06:17:50.758Z,89.22
2017-09-20T06:20:18.272Z,88.96
2017-09-20T06:22:45.753Z,89.17
2017-09-20T06:25:13.224Z,88.50
2017-09-20T06:27:40.719Z,89.07
2017-09-20T06:30:08.298Z,88.85
2017-09-20T06:32:35.779Z,88.94
2017-09-20T06:35:03.235Z,89.21
2017-09-20T06:37:30.747Z,88.99
2017-09-20T06:39:58.217Z,88.96
2017-09-20T06:42:25.773Z,87.44
2017-09-20T06:44:53.241Z,87.61
2017-09-20T06:47:21.206Z,87.71
2017-09-20T06:49:48.684Z,87.77
2017-09-20T06:52:16.158Z,88.27
2017-09-20T06:54:43.636Z,88.65
2017-09-20T06:57:11.092Z,88.70
2017-09-20T06:59:38.585Z,89.60
2017-09-20T07:02:06.048Z,88.90
2017-09-20T07:04:33.542Z,88.67
2017-09-20T07:07:01.012Z,88.32
2017-09-20T07:09:28.523Z,88.63
2017-09-20T07:11:55.974Z,89.04
2017-09-20T07:14:23.455Z,87.95
2017-09-20T07:16:50.996Z,88.24
2017-09-20T07:19:18.470Z,88.90
2017-09-20T07:21:45.929Z,88.68
2017-09-20T07:24:13.409Z,87.75
2017-09-20T07:26:40.874Z,87.35
2017-09-20T07:29:08.367Z,86.66
2017-09-20T07:31:35.839Z,87.11
2017-09-20T07:34:03.324Z,85.57
2017-09-20T07:36:30.805Z,85.57
2017-09-20T07:38:58.320Z,83.39
2017-09-20T07:41:25.788Z,82.71
2017-09-20T07:43:53.267Z,83.03
2017-09-20T07:46:20.969Z,81.04
2017-09-20T07:48:48.544Z,81.96
2017-09-20T07:51:16.004Z,81.34
2017-09-20T07:53:43.462Z,81.04
2017-09-20T07:56:10.952Z,81.56
2017-09-20T07:58:38.420Z,81.93
2017-09-20T08:01:05.905Z,82.59
2017-09-20T08:03:33.389Z,81.42
2017-09-20T08:06:00.881Z,81.75
2017-09-20T08:08:28.342Z,81.04
2017-09-20T08:10:55.834Z,81.61
2017-09-20T08:13:23.325Z,81.74
2017-09-20T08:15:50.824Z,82.04
2017-09-20T08:18:18.311Z,82.59
2017-09-20T08:20:45.779Z,81.86
2017-09-20T08:23:13.265Z,80.96
2017-09-20T08:25:40.761Z,80.15
2017-09-20T08:28:08.297Z,79.66
2017-09-20T08:30:35.803Z,79.53
2017-09-20T08:33:03.311Z,79.63
2017-09-20T08:35:30.769Z,78.93
2017-09-20T08:37:58.313Z,77.50
2017-09-20T08:40:25.843Z,78.13
2017-09-20T08:42:53.515Z,78.97
2017-09-20T08:45:20.979Z,79.57
2017-09-20T08:47:48.515Z,78.66
2017-09-20T08:50:15.975Z,78.24
2017-09-20T08:52:43.540Z,79.22
2017-09-20T08:55:11.041Z,79.30
2017-09-20T08:57:40.424Z,78.69
2017-09-20T09:00:07.949Z,78.32
2017-09-20T09:02:35.412Z,78.18
2017-09-20T09:05:02.907Z,77.47
2017-09-20T09:07:30.377Z,76.01
2017-09-20T09:09:58.607Z,74.48
2017-09-20T09:12:26.069Z,74.73
2017-09-20T09:14:53.608Z,74.18
2017-09-20T09:17:21.084Z,72.82
2017-09-20T09:19:48.756Z,73.46
2017-09-20T09:22:16.263Z,72.68
2017-09-20T09:24:43.740Z,72.23
2017-09-20T09:27:11.195Z,72.94
2017-09-20T09:29:38.663Z,73.23
2017-09-20T09:32:06.137Z,72.05
2017-09-20T09:34:33.616Z,74.14
2017-09-20T09:37:01.082Z,73.12
2017-09-20T09:39:28.580Z,72.44
2017-09-20T09:41:56.081Z,71.86
2017-09-20T09:44:23.596Z,72.06
2017-09-20T09:46:51.205Z,71.84
2017-09-20T09:49:18.696Z,70.15
2017-09-20T09:51:46.172Z,70.59
2017-09-20T09:54:13.721Z,71.92
2017-09-20T09:56:41.247Z,69.15
2017-09-20T09:59:08.719Z,70.58
2017-09-20T10:01:36.246Z,69.25
2017-09-20T10:04:03.722Z,69.08
2017-09-20T10:06:31.209Z,68.39
2017-09-20T10:08:58.684Z,68.43
2017-09-20T10:11:26.180Z,70.23
2017-09-20T10:13:53.651Z,69.36
2017-09-20T10:16:21.144Z,69.45
2017-09-20T10:18:48.905Z,70.32
2017-09-20T10:21:16.394Z,68.56
2017-09-20T10:23:43.921Z,69.83
2017-09-20T10:26:11.399Z,68.27
2017-09-20T10:28:38.936Z,68.36
2017-09-20T10:31:06.429Z,68.94
2017-09-20T10:33:33.951Z,68.30
2017-09-20T10:36:01.538Z,68.58
2017-09-20T10:38:29.024Z,66.26
2017-09-20T10:40:56.526Z,67.30
2017-09-20T10:43:23.999Z,68.03
2017-09-20T10:45:51.549Z,67.54
2017-09-20T10:48:19.021Z,68.20
2017-09-20T10:50:46.611Z,67.13
2017-09-20T10:53:14.088Z,65.80
2017-09-20T10:55:41.587Z,65.58
2017-09-20T10:58:09.056Z,65.20
2017-09-20T11:00:36.516Z,65.28
2017-09-20T11:03:04.005Z,66.02
2017-09-20T11:05:31.945Z,65.66
2017-09-20T11:07:59.498Z,66.89
2017-09-20T11:10:27.027Z,65.32
2017-09-20T11:12:54.610Z,65.88
2017-09-20T11:15:22.166Z,65.16
2017-09-20T11:17:49.654Z,65.21
2017-09-20T11:20:17.141Z,64.76
2017-09-20T11:22:44.652Z,64.89
2017-09-20T11:25:12.105Z,65.37
2017-09-20T11:27:39.584Z,66.75
2017-09-20T11:30:07.053Z,67.56
2017-09-20T11:32:34.557Z,68.80
2017-09-20T11:35:02.012Z,69.96
2017-09-20T11:37:29.493Z,70.40
2017-09-20T11:39:56.956Z,68.37
2017-09-20T11:42:24.443Z,68.63
2017-09-20T11:44:51.938Z,70.20
2017-09-20T11:47:19.417Z,69.10
2017-09-20T11:49:46.961Z,68.52
2017-09-20T11:52:14.857Z,68.52
2017-09-20T11:54:42.369Z,67.36
2017-09-20T11:57:09.837Z,66.95
2017-09-20T11:59:37.311Z,65.72
2017-09-20T12:02:04.857Z,64.57
2017-09-20T12:04:32.617Z,64.64
2017-09-20T12:07:00.172Z,63.02
2017-09-20T12:09:27.667Z,62.26
2017-09-20T12:11:55.119Z,62.13
2017-09-20T12:14:22.614Z,61.68
2017-09-20T12:16:50.067Z,59.58
2017-09-20T12:19:17.556Z,60.61
2017-09-20T12:21:45.020Z,59.47
2017-09-20T12:24:12.499Z,59.35
2017-09-20T12:26:40.040Z,59.34
2017-09-20T12:29:07.533Z,59.47
2017-09-20T12:31:35.001Z,60.71
2017-09-20T12:34:02.462Z,60.57
2017-09-20T12:36:29.932Z,59.51
2017-09-20T12:38:57.405Z,59.99
2017-09-20T12:41:24.879Z,59.61
2017-09-20T12:43:52.355Z,60.67
2017-09-20T12:46:19.851Z,64.98
2017-09-20T12:48:47.313Z,65.00
2017-09-20T12:51:15.199Z,66.74
2017-09-20T12:53:42.664Z,66.29
2017-09-20T12:56:10.145Z,66.23
2017-09-20T12:58:37.677Z,63.97
2017-09-20T13:01:05.180Z,61.71
2017-09-20T13:03:32.697Z,62.16
2017-09-20T13:06:00.210Z,62.90
2017-09-20T13:08:27.709Z,63.01
2017-09-20T13:10:55.193Z,63.83
2017-09-20T13:13:22.770Z,64.10
2017-09-20T13:15:50.287Z,63.41
2017-09-20T13:18:17.751Z,61.72
2017-09-20T13:20:45.211Z,62.77
2017-09-20T13:23:12.677Z,62.25
2017-09-20T13:25:40.136Z,61.89
2017-09-20T13:28:07.626Z,62.32
2017-09-20T13:30:35.173Z,65.16
2017-09-20T13:33:02.668Z,63.96
2017-09-20T13:35:30.119Z,62.82
2017-09-20T13:37:57.592Z,62.47
2017-09-20T13:40:25.161Z,61.55
2017-09-20T13:42:52.631Z,61.04
2017-09-20T13:45:20.105Z,58.89
2017-09-20T13:47:47.578Z,57.47
2017-09-20T13:50:15.818Z,55.91
2017-09-20T13:52:43.352Z,57.93
2017-09-20T13:55:10.799Z,59.78
2017-09-20T13:57:38.311Z,60.27
2017-09-20T14:00:05.761Z,60.89
2017-09-20T14:02:33.635Z,60.96
2017-09-20T14:05:01.087Z,61.76
2017-09-20T14:07:29.551Z,63.04
2017-09-20T14:09:57.019Z,63.01
2017-09-20T14:12:24.513Z,63.43
2017-09-20T14:14:51.980Z,63.71
2017-09-20T14:17:19.585Z,63.40
2017-09-20T14:19:47.115Z,64.99
2017-09-20T14:22:14.605Z,65.36
2017-09-20T14:24:42.117Z,64.38
2017-09-20T14:27:09.598Z,63.15
2017-09-20T14:29:37.085Z,64.36
2017-09-20T14:32:04.566Z,64.67
2017-09-20T14:34:32.053Z,65.53
2017-09-20T14:36:59.968Z,65.95
2017-09-20T14:39:27.494Z,66.24
2017-09-20T14:41:55.044Z,66.73
2017-09-20T14:44:22.529Z,66.36
2017-09-20T14:46:49.991Z,66.23
2017-09-20T14:49:17.604Z,66.23
2017-09-20T14:51:45.063Z,66.71
2017-09-20T14:54:12.540Z,65.96
2017-09-20T14:56:39.998Z,65.46
2017-09-20T14:59:07.505Z,65.86
2017-09-20T15:01:34.977Z,64.74
2017-09-20T15:04:02.463Z,65.93
2017-09-20T15:06:29.934Z,65.40
2017-09-20T15:08:57.430Z,65.12
2017-09-20T15:11:24.917Z,65.89
2017-09-20T15:13:52.390Z,65.53
2017-09-20T15:16:19.856Z,65.96
2017-09-20T15:18:47.335Z,66.77
2017-09-20T15:21:14.797Z,66.52
2017-09-20T15:23:42.301Z,66.22
2017-09-20T15:26:09.759Z,66.78
2017-09-20T15:28:37.235Z,65.85
2017-09-20T15:31:04.720Z,65.61
2017-09-20T15:33:32.252Z,65.92
2017-09-20T15:35:59.807Z,66.02
2017-09-20T15:38:27.291Z,66.16
2017-09-20T15:40:54.778Z,66.67
2017-09-20T15:43:22.233Z,66.49
2017-09-20T15:45:49.744Z,66.54
2017-09-20T15:48:17.217Z,67.16
2017-09-20T15:50:44.699Z,66.99
2017-09-20T15:53:12.165Z,66.38
2017-09-20T15:55:39.636Z,66.44
2017-09-20T15:58:07.114Z,67.25
2017-09-20T16:00:34.559Z,66.89
2017-09-20T16:03:02.028Z,66.68
2017-09-20T16:05:29.497Z,66.26
2017-09-20T16:07:56.967Z,68.02
2017-09-20T16:10:24.411Z,68.59
2017-09-20T16:12:51.883Z,68.63
2017-09-20T16:15:19.364Z,68.21
2017-09-20T16:17:46.849Z,68.73
2017-09-20T16:20:14.309Z,69.37
2017-09-20T16:22:42.227Z,69.18
2017-09-20T16:25:09.681Z,68.24
2017-09-20T16:27:37.160Z,66.87
2017-09-20T16:30:04.623Z,66.94
2017-09-20T16:32:32.110Z,65.78
2017-09-20T16:34:59.666Z,66.77
2017-09-20T16:37:27.135Z,66.09
2017-09-20T16:39:54.608Z,66.29
2017-09-20T16:42:22.066Z,66.28
2017-09-20T16:44:49.585Z,66.22
2017-09-20T16:47:17.047Z,66.93
2017-09-20T16:49:44.515Z,66.92
2017-09-20T16:52:11.963Z,66.88
2017-09-20T16:54:39.441Z,67.40
2017-09-20T16:57:06.902Z,67.34
2017-09-20T16:59:34.483Z,66.85
2017-09-20T17:02:01.950Z,67.83
2017-09-20T17:04:29.429Z,67.23
2017-09-20T17:06:56.876Z,67.93
2017-09-20T17:09:24.361Z,69.57
2017-09-20T17:11:51.811Z,70.46
2017-09-20T17:14:19.289Z,70.82
2017-09-20T17:16:46.761Z,71.65
2017-09-20T17:19:14.263Z,72.38
2017-09-20T17:21:42.587Z,72.04
2017-09-20T17:24:10.128Z,71.57
2017-09-20T17:26:37.611Z,71.58
2017-09-20T17:29:05.159Z,71.77
2017-09-20T17:31:32.635Z,72.54
2017-09-20T17:34:00.137Z,72.23
2017-09-20T17:36:27.598Z,72.47
2017-09-20T17:38:55.084Z,73.44
2017-09-20T17:41:22.540Z,73.48
2017-09-20T17:43:50.021Z,73.07
2017-09-20T17:46:17.553Z,74.43
2017-09-20T17:48:45.033Z,74.72
2017-09-20T17:51:12.497Z,75.47
2017-09-20T17:53:39.963Z,76.72
2017-09-20T17:56:07.445Z,78.16
2017-09-20T17:58:34.945Z,78.55
2017-09-20T18:01:02.405Z,79.56
2017-09-20T18:03:29.954Z,80.03
2017-09-20T18:05:57.517Z,79.68
2017-09-20T18:08:25.234Z,80.98
2017-09-20T18:10:52.707Z,82.21
2017-09-20T18:13:20.243Z,81.71
2017-09-20T18:15:47.754Z,81.21
2017-09-20T18:18:15.228Z,81.61
2017-09-20T18:20:42.724Z,82.57
2017-09-20T18:23:10.220Z,82.18
2017-09-20T18:25:37.707Z,83.21
2017-09-20T18:28:05.198Z,83.23
2017-09-20T18:30:32.693Z,84.11
2017-09-20T18:33:00.148Z,83.95
2017-09-20T18:35:27.625Z,83.54
2017-09-20T18:37:55.079Z,84.37
2017-09-20T18:40:22.554Z,84.48
2017-09-20T18:42:50.026Z,84.41
2017-09-20T18:45:17.499Z,83.66
2017-09-20T18:47:44.953Z,83.93
2017-09-20T18:50:12.433Z,83.89
2017-09-20T18:52:39.956Z,83.51
2017-09-20T18:55:07.560Z,83.65
2017-09-20T18:57:35.031Z,83.63
2017-09-20T19:00:02.582Z,84.47
2017-09-20T19:02:30.038Z,83.83
2017-09-20T19:04:57.504Z,83.70
2017-09-20T19:07:25.485Z,83.28
2017-09-20T19:09:52.948Z,83.58
2017-09-20T19:12:20.439Z,83.56
2017-09-20T19:14:47.891Z,83.39
2017-09-20T19:17:15.376Z,83.63
2017-09-20T19:19:42.832Z,84.72
2017-09-20T19:22:10.312Z,83.42
2017-09-20T19:24:37.769Z,84.11
2017-09-20T19:27:05.274Z,84.52
2017-09-20T19:29:32.728Z,84.68
2017-09-20T19:32:00.209Z,84.21
2017-09-20T19:34:27.670Z,85.27
2017-09-20T19:36:55.135Z,85.66
2017-09-20T19:39:22.697Z,84.39
2017-09-20T19:41:50.158Z,85.00
2017-09-20T19:44:17.628Z,84.82
2017-09-20T19:46:45.176Z,85.94
2017-09-20T19:49:12.652Z,85.52
2017-09-20T19:51:40.175Z,84.76
2017-09-20T19:54:08.087Z,84.30
2017-09-20T19:56:35.568Z,84.48
2017-09-20T19:59:03.074Z,85.04
2017-09-20T20:01:32.452Z,85.68
2017-09-20T20:03:59.928Z,85.57
2017-09-20T20:06:27.411Z,84.96
2017-09-20T20:08:54.885Z,84.95
2017-09-20T20:11:22.412Z,84.95
2017-09-20T20:13:49.879Z,84.81
2017-09-20T20:16:17.419Z,84.50
2017-09-20T20:18:44.885Z,84.87
2017-09-20T20:21:12.366Z,85.74
2017-09-20T20:23:39.829Z,86.65
2017-09-20T20:26:07.321Z,86.91
2017-09-20T20:28:35.380Z,85.61
2017-09-20T20:31:02.907Z,85.25
2017-09-20T20:33:30.363Z,85.55
2017-09-20T20:35:57.849Z,85.51
2017-09-20T20:38:25.309Z,85.40
2017-09-20T20:40:52.900Z,85.20
2017-09-20T20:43:20.417Z,84.61
2017-09-20T20:45:47.889Z,84.49
2017-09-20T20:48:15.335Z,84.59
2017-09-20T20:50:42.819Z,84.71
2017-09-20T20:53:10.892Z,86.01
2017-09-20T20:55:38.375Z,84.86
2017-09-20T20:58:05.838Z,85.58
2017-09-20T21:00:33.292Z,85.82
2017-09-20T21:03:00.796Z,85.28
2017-09-20T21:05:28.251Z,84.74
2017-09-20T21:07:55.757Z,84.50
2017-09-20T21:10:23.227Z,85.09
2017-09-20T21:12:50.719Z,84.77
2017-09-20T21:15:18.211Z,85.39
2017-09-20T21:17:45.687Z,85.15
2017-09-20T21:20:13.149Z,84.89
2017-09-20T21:22:40.660Z,85.09
2017-09-20T21:25:08.140Z,85.30
2017-09-20T21:27:35.637Z,85.19
2017-09-20T21:30:03.102Z,84.65
2017-09-20T21:32:30.587Z,84.74
2017-09-20T21:34:58.058Z,84.78
2017-09-20T21:37:25.527Z,84.99
2017-09-20T21:39:53.032Z,85.44
2017-09-20T21:42:20.508Z,85.44
2017-09-20T21:44:48.009Z,85.80
2017-09-20T21:47:15.458Z,85.03
2017-09-20T21:49:42.927Z,84.90
2017-09-20T21:52:10.383Z,84.98
2017-09-20T21:54:37.862Z,85.21
2017-09-20T21:57:05.397Z,84.75
2017-09-20T21:59:32.871Z,85.07
2017-09-20T22:02:00.399Z,85.35
2017-09-20T22:04:27.881Z,85.08
2017-09-20T22:06:55.359Z,83.89
2017-09-20T22:09:22.831Z,84.92
2017-09-20T22:11:50.316Z,85.17
2017-09-20T22:14:17.775Z,85.18
2017-09-20T22:16:57.068Z,84.90
2017-09-20T22:19:36.321Z,84.16
2017-09-20T22:22:15.491Z,85.31
2017-09-20T22:24:54.839Z,85.50
2017-09-20T22:27:28.184Z,85.09
2017-09-20T22:29:55.644Z,84.83
2017-09-20T22:32:23.166Z,85.21
2017-09-20T22:34:50.647Z,84.91
2017-09-20T22:37:18.133Z,84.85
2017-09-20T22:39:45.580Z,84.48
2017-09-20T22:42:13.168Z,84.29
2017-09-20T22:44:40.619Z,84.76
2017-09-20T22:47:08.173Z,85.04
2017-09-20T22:49:35.631Z,85.19
2017-09-20T22:52:03.107Z,83.99
2017-09-20T22:54:30.658Z,84.67
2017-09-20T22:56:58.131Z,84.62
2017-09-20T22:59:25.602Z,84.64
2017-09-20T23:01:53.080Z,84.78
2017-09-20T23:04:20.524Z,85.33
2017-09-20T23:06:47.976Z,86.19
2017-09-20T23:09:15.942Z,85.91
2017-09-20T23:11:43.405Z,85.75
2017-09-20T23:14:10.920Z,86.23
2017-09-20T23:16:38.473Z,85.46
2017-09-20T23:19:05.944Z,85.29
2017-09-20T23:21:33.442Z,85.44
2017-09-20T23:24:00.921Z,85.47
2017-09-20T23:26:28.388Z,85.38
2017-09-20T23:28:55.885Z,85.27
2017-09-20T23:31:23.348Z,85.72
2017-09-20T23:33:50.828Z,86.35
2017-09-20T23:36:18.289Z,86.39
2017-09-20T23:38:45.809Z,85.85
2017-09-20T23:41:13.268Z,85.67
2017-09-20T23:43:40.749Z,85.86
2017-09-20T23:46:08.253Z,84.59
2017-09-20T23:48:35.716Z,84.54
2017-09-20T23:51:03.192Z,85.14
2017-09-20T23:53:30.649Z,85.02
2017-09-20T23:55:58.132Z,85.92
2017-09-20T23:58:25.590Z,85.18
